Time;durP1;ratioP1;P1;durP2;ratioP2;P2;SDS_P1;SDS_P2;PMS_P1;PMS_P2;Temp;Humidity;BMP_temperature;BMP_pressure;BME280_temperature;BME280_humidity;BME280_pressure;Samples;Min_cycle;Max_cycle;Signal;HPM_P1;HPM_P2
2023/12/14 00:01:41;;;;;;;18.67;15.02;;;;;;;7.23;100.00;100791.97;5036617;28;20022;-57
2023/12/14 00:04:07;;;;;;;17.17;13.80;;;;;;;7.21;100.00;100799.13;5040289;28;20489;-59
2023/12/14 00:06:32;;;;;;;16.63;12.82;;;;;;;7.16;100.00;100807.38;5032379;28;20035;-58
2023/12/14 00:08:57;;;;;;;18.17;13.82;;;;;;;7.13;100.00;100802.28;5035637;28;20060;-59
2023/12/14 00:11:22;;;;;;;16.00;13.27;;;;;;;7.10;100.00;100807.75;5033633;28;20050;-59
2023/12/14 00:13:48;;;;;;;16.42;13.35;;;;;;;7.09;100.00;100815.75;5033223;28;20024;-57
2023/12/14 00:16:14;;;;;;;15.38;12.82;;;;;;;7.06;100.00;100821.22;5032616;28;20042;-58
2023/12/14 00:18:39;;;;;;;16.08;13.68;;;;;;;7.03;100.00;100822.28;5036228;28;20371;-58
2023/12/14 00:21:05;;;;;;;15.60;13.82;;;;;;;6.99;100.00;100831.31;5032638;28;20029;-58
2023/12/14 00:23:30;;;;;;;15.45;13.77;;;;;;;6.96;100.00;100839.44;5034012;28;20033;-58
2023/12/14 00:25:56;;;;;;;16.33;13.65;;;;;;;6.96;100.00;100839.44;5039722;28;20029;-58
2023/12/14 00:28:22;;;;;;;17.27;13.77;;;;;;;6.95;100.00;100846.53;5035391;28;20033;-58
2023/12/14 00:30:47;;;;;;;16.83;14.18;;;;;;;6.91;100.00;100857.34;5039303;28;20135;-59
2023/12/14 00:33:12;;;;;;;17.50;14.38;;;;;;;6.89;100.00;100864.53;5034383;28;20114;-59
2023/12/14 00:35:38;;;;;;;17.92;14.68;;;;;;;6.84;100.00;100878.88;5036134;28;20032;-57
2023/12/14 00:38:03;;;;;;;19.77;15.43;;;;;;;6.80;100.00;100879.13;5036354;28;20032;-58
2023/12/14 00:40:28;;;;;;;18.40;14.25;;;;;;;6.79;100.00;100893.25;5037346;28;20410;-59
2023/12/14 00:42:53;;;;;;;19.38;15.48;;;;;;;6.73;100.00;100891.84;5035743;28;20045;-57
2023/12/14 00:45:19;;;;;;;20.65;15.27;;;;;;;6.71;100.00;100896.38;5041900;28;20032;-58
2023/12/14 00:47:44;;;;;;;19.65;15.93;;;;;;;6.67;100.00;100905.41;5035549;28;20026;-58
2023/12/14 00:50:09;;;;;;;19.50;16.23;;;;;;;6.65;100.00;100912.56;5035646;28;20494;-57
2023/12/14 00:52:35;;;;;;;19.55;16.25;;;;;;;6.64;100.00;100916.16;5035815;28;20025;-57
2023/12/14 00:55:00;;;;;;;20.80;15.90;;;;;;;6.62;100.00;100916.22;5035751;28;20029;-56
2023/12/14 00:57:25;;;;;;;21.90;16.75;;;;;;;6.60;100.00;100912.00;5030687;28;20685;-57
2023/12/14 00:59:51;;;;;;;20.08;16.38;;;;;;;6.56;100.00;100918.38;5034992;28;20026;-58
2023/12/14 01:02:16;;;;;;;21.00;17.08;;;;;;;6.58;100.00;100917.38;5037482;28;20391;-57
2023/12/14 01:04:42;;;;;;;21.73;16.85;;;;;;;6.54;100.00;100925.53;5038926;28;20028;-57
2023/12/14 01:07:07;;;;;;;20.90;16.30;;;;;;;6.51;100.00;100926.56;5034308;28;20017;-58
2023/12/14 01:09:32;;;;;;;19.90;15.98;;;;;;;6.52;100.00;100935.34;5043001;28;20037;-58
2023/12/14 01:11:58;;;;;;;19.00;15.32;;;;;;;6.52;100.00;100936.19;5031519;28;20026;-57
2023/12/14 01:14:23;;;;;;;21.20;16.42;;;;;;;6.52;100.00;100943.25;5038664;28;20099;-54
2023/12/14 01:16:48;;;;;;;21.02;15.77;;;;;;;6.46;100.00;100955.00;5035179;28;20022;-55
2023/12/14 01:19:14;;;;;;;21.63;15.70;;;;;;;6.39;100.00;100957.16;5034588;28;20037;-57
2023/12/14 01:21:39;;;;;;;19.50;14.65;;;;;;;6.33;100.00;100965.44;5038665;28;20025;-57
2023/12/14 01:24:05;;;;;;;17.30;14.05;;;;;;;6.32;100.00;100969.00;5031220;28;20040;-57
2023/12/14 01:26:30;;;;;;;18.52;15.00;;;;;;;6.28;100.00;100978.03;5031528;28;20442;-57
2023/12/14 01:28:55;;;;;;;16.50;13.32;;;;;;;6.26;100.00;100985.16;5039651;28;20386;-58
2023/12/14 01:31:23;;;;;;;17.33;13.80;;;;;;;6.23;100.00;100985.34;5039408;28;20104;-58
2023/12/14 01:33:49;;;;;;;17.52;14.35;;;;;;;6.22;100.00;100996.84;5039050;28;20040;-58
2023/12/14 01:36:21;;;;;;;16.48;14.02;;;;;;;6.23;100.00;100991.47;5035811;28;20025;-57
2023/12/14 01:38:46;;;;;;;17.77;14.60;;;;;;;6.24;100.00;100997.59;5035231;28;20029;-58
2023/12/14 01:41:11;;;;;;;18.00;14.32;;;;;;;6.25;100.00;101008.06;5036160;28;20028;-55
2023/12/14 01:43:37;;;;;;;16.70;14.05;;;;;;;6.23;100.00;101011.72;5037824;28;20439;-57
2023/12/14 01:46:02;;;;;;;15.93;13.23;;;;;;;6.20;100.00;101010.09;5042861;28;20032;-59
2023/12/14 01:48:27;;;;;;;17.15;13.32;;;;;;;6.18;100.00;101019.03;5038920;28;20025;-59
2023/12/14 01:50:53;;;;;;;16.60;13.55;;;;;;;6.16;100.00;101023.53;5036023;28;20085;-58
2023/12/14 01:53:18;;;;;;;16.40;13.50;;;;;;;6.15;100.00;101024.50;5038115;28;20032;-59
2023/12/14 01:55:43;;;;;;;18.38;13.23;;;;;;;6.14;100.00;101030.69;5035310;28;20087;-59
2023/12/14 01:58:08;;;;;;;17.73;14.10;;;;;;;6.08;100.00;101040.66;5039382;28;20107;-59
2023/12/14 02:00:57;;;;;;;17.58;14.52;;;;;;;6.05;100.00;101043.44;5036731;28;20079;-59
2023/12/14 02:03:22;;;;;;;16.47;13.47;;;;;;;6.03;100.00;101041.81;5026511;28;20052;-58
2023/12/14 02:05:47;;;;;;;16.88;13.48;;;;;;;6.00;100.00;101049.91;5036146;28;20713;-58
2023/12/14 02:08:13;;;;;;;17.42;13.52;;;;;;;5.98;100.00;101052.63;5040542;28;20036;-59
2023/12/14 02:10:38;;;;;;;16.60;13.05;;;;;;;5.97;100.00;101056.19;5034579;28;20076;-58
2023/12/14 02:13:03;;;;;;;16.70;13.38;;;;;;;5.97;100.00;101063.25;5037787;28;20152;-59
2023/12/14 02:15:29;;;;;;;18.02;13.07;;;;;;;5.96;100.00;101066.78;5032153;28;20025;-58
2023/12/14 02:17:54;;;;;;;16.98;12.73;;;;;;;5.96;100.00;101077.31;5037836;28;20033;-59
2023/12/14 02:20:20;;;;;;;15.80;13.02;;;;;;;5.95;100.00;101084.41;5036830;28;20088;-59
2023/12/14 02:22:52;;;;;;;17.33;13.13;;;;;;;5.95;100.00;101087.03;5041608;28;20029;-59
2023/12/14 02:25:18;;;;;;;16.20;13.07;;;;;;;5.90;100.00;101087.28;5035979;28;20510;-60
2023/12/14 02:27:44;;;;;;;17.00;13.15;;;;;;;5.89;100.00;101088.19;5042739;28;20029;-59
2023/12/14 02:30:11;;;;;;;18.05;13.93;;;;;;;5.87;100.00;101090.06;5035948;28;20129;-59
2023/12/14 02:32:37;;;;;;;17.45;13.48;;;;;;;5.84;100.00;101089.38;5040018;28;20191;-58
2023/12/14 02:35:03;;;;;;;18.38;13.60;;;;;;;5.84;100.00;101089.38;5038323;28;20029;-59
2023/12/14 02:37:28;;;;;;;18.27;14.23;;;;;;;5.80;100.00;101098.41;5038343;28;20120;-59
2023/12/14 02:39:54;;;;;;;19.67;14.40;;;;;;;5.80;100.00;101112.41;5034979;28;20546;-59
2023/12/14 02:42:19;;;;;;;20.08;14.27;;;;;;;5.80;100.00;101115.06;5037580;28;20025;-58
2023/12/14 02:44:44;;;;;;;18.70;14.10;;;;;;;5.79;100.00;101120.41;5022175;28;20386;-58
2023/12/14 02:47:09;;;;;;;17.65;13.65;;;;;;;5.75;100.00;101123.19;5038470;28;20071;-59
2023/12/14 02:49:35;;;;;;;18.70;14.02;;;;;;;5.78;100.00;101131.88;5038711;28;20398;-58
2023/12/14 02:52:00;;;;;;;18.35;13.95;;;;;;;5.78;100.00;101131.88;5040767;28;20026;-59
2023/12/14 02:54:25;;;;;;;16.25;13.13;;;;;;;5.77;100.00;101138.09;5036504;28;20029;-57
2023/12/14 02:56:50;;;;;;;18.58;13.80;;;;;;;5.76;100.00;101142.47;5038332;28;20049;-58
2023/12/14 02:59:16;;;;;;;20.63;14.05;;;;;;;5.74;100.00;101137.31;5039690;28;20359;-58
2023/12/14 03:01:41;;;;;;;17.73;14.27;;;;;;;5.73;100.00;101146.16;5037148;28;20061;-58
2023/12/14 03:04:07;;;;;;;17.35;13.75;;;;;;;5.70;100.00;101153.38;5021980;28;20021;-58
2023/12/14 03:06:32;;;;;;;18.55;13.90;;;;;;;5.67;100.00;101153.50;5040817;28;20029;-57
2023/12/14 03:08:57;;;;;;;18.70;14.32;;;;;;;5.66;100.00;101151.81;5040912;28;20029;-58
2023/12/14 03:11:23;;;;;;;16.73;13.25;;;;;;;5.66;100.00;101163.22;5036979;28;20420;-59
2023/12/14 03:13:49;;;;;;;17.05;13.68;;;;;;;5.65;100.00;101165.94;5039237;28;20029;-59
2023/12/14 03:16:14;;;;;;;18.25;13.55;;;;;;;5.63;100.00;101168.63;5042576;28;20367;-59
2023/12/14 03:18:39;;;;;;;16.35;13.48;;;;;;;5.63;100.00;101165.13;5035739;28;20501;-58
2023/12/14 03:21:05;;;;;;;17.13;14.05;;;;;;;5.64;100.00;101172.97;5036022;28;20021;-59
2023/12/14 03:23:30;;;;;;;17.17;13.68;;;;;;;5.64;100.00;101169.47;5033949;28;20029;-58
2023/12/14 03:25:55;;;;;;;18.17;14.52;;;;;;;5.63;100.00;101165.13;5040534;28;20489;-58
2023/12/14 03:28:20;;;;;;;18.60;14.23;;;;;;;5.62;100.00;101164.28;5033535;28;20040;-58
2023/12/14 03:30:46;;;;;;;18.55;14.65;;;;;;;5.59;100.00;101174.97;5037461;28;20071;-59
2023/12/14 03:33:11;;;;;;;18.33;14.32;;;;;;;5.60;100.00;101176.69;5040410;28;20122;-59
2023/12/14 03:35:36;;;;;;;16.40;14.45;;;;;;;5.57;100.00;101176.84;5038008;28;20498;-57
2023/12/14 03:38:02;;;;;;;19.25;14.80;;;;;;;5.56;100.00;101175.13;5040628;28;20078;-58
2023/12/14 03:40:27;;;;;;;17.23;14.15;;;;;;;5.55;100.00;101173.44;5036428;28;20080;-59
2023/12/14 03:42:52;;;;;;;17.20;14.00;;;;;;;5.55;100.00;101178.72;5041734;28;20516;-58
2023/12/14 03:45:17;;;;;;;19.90;15.45;;;;;;;5.57;100.00;101187.38;5036069;28;20091;-57
2023/12/14 03:47:43;;;;;;;18.48;15.13;;;;;;;5.56;100.00;101193.56;5042073;28;20104;-58
2023/12/14 03:50:11;;;;;;;18.77;14.88;;;;;;;5.57;100.00;101190.00;5036317;28;20017;-58
2023/12/14 03:52:36;;;;;;;19.10;15.98;;;;;;;5.56;100.00;101196.19;5039969;28;20032;-58
2023/12/14 03:55:01;;;;;;;18.85;15.07;;;;;;;5.55;100.00;101195.38;5036356;28;20029;-58
2023/12/14 03:57:27;;;;;;;18.05;14.60;;;;;;;5.54;100.00;101204.19;5038268;28;20025;-58
2023/12/14 03:59:52;;;;;;;19.60;15.63;;;;;;;5.55;100.00;101203.25;5038201;28;20033;-59
2023/12/14 04:02:18;;;;;;;18.77;15.43;;;;;;;5.55;100.00;101205.06;5037317;28;20030;-58
2023/12/14 04:04:43;;;;;;;18.83;15.30;;;;;;;5.52;100.00;101207.84;5038709;28;20430;-58
2023/12/14 04:07:08;;;;;;;19.15;15.30;;;;;;;5.56;100.00;101212.00;5017010;28;20029;-58
2023/12/14 04:09:33;;;;;;;18.52;15.20;;;;;;;5.54;100.00;101206.81;5034831;28;20029;-59
2023/12/14 04:11:59;;;;;;;17.67;14.32;;;;;;;5.56;100.00;101202.34;5035373;28;20159;-57
2023/12/14 04:14:24;;;;;;;16.83;14.38;;;;;;;5.56;100.00;101204.09;5035222;28;20022;-58
2023/12/14 04:16:49;;;;;;;17.80;14.82;;;;;;;5.54;100.00;101205.97;5033025;28;20147;-58
2023/12/14 04:19:14;;;;;;;18.42;15.00;;;;;;;5.54;100.00;101209.44;5032839;28;20055;-58
2023/12/14 04:21:40;;;;;;;18.13;15.20;;;;;;;5.54;100.00;101217.34;5041863;28;20104;-58
2023/12/14 04:24:05;;;;;;;20.45;15.40;;;;;;;5.52;100.00;101215.75;5040120;28;20086;-59
2023/12/14 04:26:31;;;;;;;16.38;14.35;;;;;;;5.53;100.00;101218.31;5038102;28;20119;-59
2023/12/14 04:28:56;;;;;;;17.88;14.90;;;;;;;5.50;100.00;101236.06;5042500;28;20033;-57
2023/12/14 04:31:21;;;;;;;16.60;14.35;;;;;;;5.48;100.00;101241.41;5037007;28;20033;-57
2023/12/14 04:33:46;;;;;;;15.98;14.00;;;;;;;5.49;100.00;101250.13;5033421;28;20021;-58
2023/12/14 04:36:12;;;;;;;16.00;13.73;;;;;;;5.48;100.00;101254.56;5034405;28;20029;-58
2023/12/14 04:38:37;;;;;;;18.85;14.18;;;;;;;5.50;100.00;101262.41;5038913;28;20035;-57
2023/12/14 04:41:02;;;;;;;16.42;14.18;;;;;;;5.52;100.00;101264.00;5042458;28;20382;-58
2023/12/14 04:43:30;;;;;;;19.42;15.32;;;;;;;5.53;100.00;101272.78;5039764;28;20025;-58
2023/12/14 04:45:55;;;;;;;16.75;14.70;;;;;;;5.54;100.00;101283.22;5038157;28;20478;-57
2023/12/14 04:48:21;;;;;;;20.33;14.82;;;;;;;5.55;100.00;101287.59;5035279;28;20056;-58
2023/12/14 04:50:46;;;;;;;18.35;15.23;;;;;;;5.57;100.00;101298.03;5036061;28;20489;-58
2023/12/14 04:53:11;;;;;;;17.92;14.90;;;;;;;5.55;100.00;101290.22;5036278;28;20047;-55
2023/12/14 04:55:37;;;;;;;17.65;15.02;;;;;;;5.58;100.00;101297.13;5037733;28;20536;-58
2023/12/14 04:58:02;;;;;;;18.15;15.70;;;;;;;5.60;100.00;101292.63;5032433;28;20075;-58
2023/12/14 05:00:27;;;;;;;18.15;15.10;;;;;;;5.64;100.00;101296.81;5032839;28;20075;-57
2023/12/14 05:02:53;;;;;;;17.30;15.07;;;;;;;5.66;100.00;101302.00;5034220;28;20021;-58
2023/12/14 05:05:18;;;;;;;17.27;14.85;;;;;;;5.67;100.00;101314.28;5041458;28;20025;-56
2023/12/14 05:07:43;;;;;;;19.70;15.05;;;;;;;5.68;100.00;101321.22;5035780;28;20021;-55
2023/12/14 05:10:09;;;;;;;18.05;15.40;;;;;;;5.70;100.00;101320.25;5038028;28;20073;-58
2023/12/14 05:12:35;;;;;;;20.30;16.02;;;;;;;5.68;100.00;101337.03;5033364;28;20552;-56
2023/12/14 05:15:00;;;;;;;17.63;15.40;;;;;;;5.66;100.00;101338.91;5036840;28;20029;-59
2023/12/14 05:17:25;;;;;;;18.80;16.13;;;;;;;5.65;100.00;101350.41;5034730;28;20032;-56
2023/12/14 05:19:50;;;;;;;17.55;15.30;;;;;;;5.64;100.00;101348.69;5032596;28;20021;-57
2023/12/14 05:22:16;;;;;;;23.23;15.77;;;;;;;5.63;100.00;101354.84;5033456;28;20074;-56
2023/12/14 05:24:41;;;;;;;19.08;16.08;;;;;;;5.62;100.00;101361.91;5036471;28;20061;-58
2023/12/14 05:27:06;;;;;;;18.35;15.93;;;;;;;5.62;100.00;101353.16;5034213;28;20086;-58
2023/12/14 05:29:33;;;;;;;17.73;15.30;;;;;;;5.62;100.00;101372.47;5035839;28;20383;-58
2023/12/14 05:31:58;;;;;;;18.42;15.65;;;;;;;5.63;100.00;101368.03;5034333;28;20486;-58
2023/12/14 05:34:23;;;;;;;18.52;15.35;;;;;;;5.65;100.00;101382.03;5037389;28;20024;-58
2023/12/14 05:36:49;;;;;;;17.15;14.82;;;;;;;5.64;100.00;101382.94;5039457;28;20036;-57
2023/12/14 05:39:14;;;;;;;18.58;14.80;;;;;;;5.67;100.00;101388.91;5038342;28;20537;-58
2023/12/14 05:41:41;;;;;;;18.75;15.13;;;;;;;5.65;100.00;101397.84;5034647;28;20030;-58
2023/12/14 05:44:06;;;;;;;18.75;15.52;;;;;;;5.61;100.00;101398.88;5037724;28;20028;-58
2023/12/14 05:46:31;;;;;;;18.67;16.02;;;;;;;5.61;100.00;101410.28;5038506;28;20025;-57
2023/12/14 05:48:57;;;;;;;19.33;15.77;;;;;;;5.57;100.00;101420.09;5042410;28;20036;-58
2023/12/14 05:51:32;;;;;;;19.23;15.13;;;;;;;5.60;100.00;101427.03;5037504;28;20079;-58
2023/12/14 05:53:58;;;;;;;20.30;15.20;;;;;;;5.56;100.00;101430.72;5038981;28;20393;-58
2023/12/14 05:56:24;;;;;;;20.00;15.65;;;;;;;5.55;100.00;101436.94;5037252;28;20030;-58
2023/12/14 05:58:50;;;;;;;16.80;14.82;;;;;;;5.54;100.00;101443.09;5039701;28;20114;-56
2023/12/14 06:01:18;;;;;;;18.92;15.85;;;;;;;5.49;100.00;101451.22;5040029;28;20509;-58
2023/12/14 06:03:44;;;;;;;17.15;14.48;;;;;;;5.51;100.00;101453.78;5033523;28;20549;-56
2023/12/14 06:06:10;;;;;;;15.70;13.98;;;;;;;5.49;100.00;101447.75;5038895;28;20037;-58
2023/12/14 06:08:35;;;;;;;17.10;14.45;;;;;;;5.51;100.00;101448.50;5040330;28;20092;-57
2023/12/14 06:11:01;;;;;;;20.45;15.98;;;;;;;5.52;100.00;101447.59;5038292;28;20038;-57
2023/12/14 06:13:26;;;;;;;17.40;14.85;;;;;;;5.51;100.00;101451.16;5039736;28;20029;-56
2023/12/14 06:15:51;;;;;;;17.20;14.73;;;;;;;5.47;100.00;101453.06;5035964;28;20025;-58
2023/12/14 06:18:16;;;;;;;17.52;15.27;;;;;;;5.50;100.00;101452.09;5036713;28;20110;-57
2023/12/14 06:20:42;;;;;;;18.55;15.38;;;;;;;5.49;100.00;101460.91;5032298;28;20025;-58
2023/12/14 06:23:07;;;;;;;18.23;15.48;;;;;;;5.47;100.00;101468.03;5034983;28;20445;-58
2023/12/14 06:25:32;;;;;;;17.80;15.90;;;;;;;5.48;100.00;101478.50;5041495;28;20039;-58
2023/12/14 06:27:57;;;;;;;17.90;15.93;;;;;;;5.47;100.00;101482.06;5032702;28;20033;-57
2023/12/14 06:30:23;;;;;;;18.25;15.10;;;;;;;5.47;100.00;101474.16;5041507;28;20051;-57
2023/12/14 06:32:48;;;;;;;17.40;15.10;;;;;;;5.48;100.00;101488.16;5022764;28;20060;-58
2023/12/14 06:35:14;;;;;;;17.75;15.55;;;;;;;5.47;100.00;101492.59;5034286;28;20029;-58
2023/12/14 06:37:41;;;;;;;18.83;14.85;;;;;;;5.48;100.00;101496.06;5032057;28;20488;-57
2023/12/14 06:40:09;;;;;;;19.15;15.20;;;;;;;5.44;100.00;101497.16;5029609;28;20025;-58
2023/12/14 06:42:34;;;;;;;18.33;15.70;;;;;;;5.46;100.00;101498.81;5031663;28;20033;-58
2023/12/14 06:45:02;;;;;;;18.10;15.60;;;;;;;5.47;100.00;101502.28;5033385;28;20021;-57
2023/12/14 06:47:28;;;;;;;18.60;15.90;;;;;;;5.48;100.00;101511.88;5031547;28;20498;-57
2023/12/14 06:49:53;;;;;;;21.77;17.35;;;;;;;5.44;100.00;101511.16;5035112;28;20044;-58
2023/12/14 06:52:18;;;;;;;25.42;17.27;;;;;;;5.45;100.00;101519.94;5034580;28;20025;-58
2023/12/14 06:54:44;;;;;;;25.05;17.90;;;;;;;5.42;100.00;101518.28;5035845;28;20037;-57
2023/12/14 06:57:09;;;;;;;22.42;16.77;;;;;;;5.40;100.00;101516.66;5031485;28;20033;-58
2023/12/14 06:59:34;;;;;;;26.23;17.88;;;;;;;5.36;100.00;101531.72;5035633;28;20474;-58
2023/12/14 07:01:59;;;;;;;25.65;17.60;;;;;;;5.34;100.00;101531.78;5033694;28;20030;-58
2023/12/14 07:04:25;;;;;;;28.33;18.13;;;;;;;5.34;100.00;101534.41;5033166;28;20359;-55
2023/12/14 07:06:52;;;;;;;27.17;17.65;;;;;;;5.33;100.00;101540.63;5035298;28;20044;-57
2023/12/14 07:09:17;;;;;;;24.48;17.67;;;;;;;5.33;100.00;101538.00;5032865;28;20386;-59
2023/12/14 07:11:42;;;;;;;25.60;18.00;;;;;;;5.31;100.00;101542.50;5034165;28;20042;-58
2023/12/14 07:14:08;;;;;;;25.98;17.92;;;;;;;5.27;100.00;101546.16;5032894;28;20405;-58
2023/12/14 07:16:33;;;;;;;24.05;18.13;;;;;;;5.27;100.00;101558.47;5033454;28;20037;-58
2023/12/14 07:18:58;;;;;;;25.30;17.88;;;;;;;5.28;100.00;101563.69;5033141;28;20034;-58
2023/12/14 07:21:23;;;;;;;25.85;18.48;;;;;;;5.29;100.00;101577.69;5034218;28;20026;-58
2023/12/14 07:23:49;;;;;;;23.77;18.85;;;;;;;5.31;100.00;101579.38;5030939;28;20108;-58
2023/12/14 07:26:14;;;;;;;24.02;17.17;;;;;;;5.32;100.00;101586.31;5030516;28;20033;-57
2023/12/14 07:28:39;;;;;;;25.25;16.80;;;;;;;5.32;100.00;101590.75;5033701;28;20029;-58
2023/12/14 07:31:05;;;;;;;21.17;16.33;;;;;;;5.32;100.00;101593.38;5030508;28;20096;-58
2023/12/14 07:33:30;;;;;;;24.27;16.33;;;;;;;5.30;100.00;101601.34;5032391;28;20026;-59
2023/12/14 07:35:55;;;;;;;23.25;15.50;;;;;;;5.27;100.00;101601.47;5032156;28;20068;-58
2023/12/14 07:38:21;;;;;;;23.52;16.48;;;;;;;5.21;100.00;101604.34;5036961;28;20037;-59
2023/12/14 07:40:46;;;;;;;23.25;16.20;;;;;;;5.18;100.00;101607.97;5035584;28;20084;-59
2023/12/14 07:43:12;;;;;;;23.38;15.65;;;;;;;5.13;100.00;101609.97;5035467;28;20036;-58
2023/12/14 07:45:37;;;;;;;24.48;16.38;;;;;;;5.10;100.00;101617.97;5032541;28;20026;-59
2023/12/14 07:48:06;;;;;;;24.63;16.00;;;;;;;5.04;100.00;101620.84;5033504;28;20111;-59
2023/12/14 07:50:31;;;;;;;23.83;15.43;;;;;;;4.99;100.00;101623.66;5031111;28;20032;-59
2023/12/14 07:52:57;;;;;;;23.40;15.35;;;;;;;4.97;100.00;101620.25;5031437;28;20296;-59
2023/12/14 07:55:22;;;;;;;21.40;14.50;;;;;;;4.94;100.00;101624.78;5030923;28;20029;-59
2023/12/14 07:57:48;;;;;;;24.60;15.00;;;;;;;4.93;100.00;101633.59;5032645;28;20043;-58
2023/12/14 08:00:14;;;;;;;23.88;15.23;;;;;;;4.92;100.00;101642.44;5035387;28;20013;-58
2023/12/14 08:02:39;;;;;;;23.15;14.70;;;;;;;4.92;100.00;101639.78;5032302;28;20078;-59
2023/12/14 08:05:05;;;;;;;23.42;15.07;;;;;;;4.91;100.00;101646.84;5035763;28;20104;-60
2023/12/14 08:07:31;;;;;;;20.38;15.07;;;;;;;4.90;100.00;101646.91;5032263;28;20036;-60
2023/12/14 08:09:57;;;;;;;23.75;14.48;;;;;;;4.89;100.00;101653.06;5038269;28;20063;-59
2023/12/14 08:12:23;;;;;;;19.67;13.68;;;;;;;4.88;100.00;101654.84;5032171;28;20017;-58
2023/12/14 08:14:48;;;;;;;22.90;14.70;;;;;;;4.84;100.00;101650.63;5038131;28;20028;-61
2023/12/14 08:17:14;;;;;;;17.50;12.90;;;;;;;4.81;100.00;101656.88;5026941;28;20033;-60
2023/12/14 08:19:39;;;;;;;16.50;13.05;;;;;;;4.78;100.00;101657.00;5035676;28;20053;-60
2023/12/14 08:22:04;;;;;;;18.00;13.43;;;;;;;4.79;100.00;101665.72;5038761;28;20021;-59
2023/12/14 08:24:30;;;;;;;17.25;13.15;;;;;;;4.76;100.00;101673.75;5038427;28;20549;-59
2023/12/14 08:26:55;;;;;;;18.60;13.77;;;;;;;4.74;100.00;101686.13;5033112;28;20041;-59
2023/12/14 08:29:20;;;;;;;18.35;13.00;;;;;;;4.73;100.00;101690.53;5033937;28;20471;-59
2023/12/14 08:31:46;;;;;;;19.52;13.65;;;;;;;4.72;100.00;101701.97;5035600;28;20069;-58
2023/12/14 08:34:11;;;;;;;18.52;14.40;;;;;;;4.74;100.00;101696.63;5032548;28;20099;-60
2023/12/14 08:36:36;;;;;;;18.92;13.80;;;;;;;4.73;100.00;101701.06;5034422;28;20029;-60
2023/12/14 08:39:02;;;;;;;15.85;13.18;;;;;;;4.74;100.00;101709.78;5031398;28;20025;-59
2023/12/14 08:41:27;;;;;;;18.33;13.02;;;;;;;4.73;100.00;101711.59;5029229;28;20625;-60
2023/12/14 08:43:53;;;;;;;17.25;13.75;;;;;;;4.72;100.00;101719.53;5034224;28;20032;-60
2023/12/14 08:46:18;;;;;;;17.92;13.88;;;;;;;4.71;100.00;101730.97;5028590;28;20112;-59
2023/12/14 08:48:43;;;;;;;16.55;13.10;;;;;;;4.69;100.00;101735.44;5035153;28;20113;-60
2023/12/14 08:51:09;;;;;;;19.77;13.77;;;;;;;4.69;100.00;101733.66;5032781;28;20483;-60
2023/12/14 08:53:34;;;;;;;16.17;13.65;;;;;;;4.69;100.00;101731.03;5034454;28;20061;-60
2023/12/14 08:55:59;;;;;;;15.77;13.30;;;;;;;4.70;100.00;101721.38;5032367;28;20037;-59
2023/12/14 08:58:24;;;;;;;18.58;13.32;;;;;;;4.68;100.00;101731.06;5034894;28;20393;-59
2023/12/14 09:00:52;;;;;;;16.40;13.10;;;;;;;4.67;100.00;101724.13;5032069;28;20037;-59
2023/12/14 09:03:21;;;;;;;15.35;12.50;;;;;;;4.65;100.00;101729.44;5034965;28;20032;-60
2023/12/14 09:05:46;;;;;;;19.40;13.43;;;;;;;4.67;100.00;101734.63;5037728;28;20098;-59
2023/12/14 09:08:11;;;;;;;17.55;12.32;;;;;;;4.68;100.00;101736.34;5038588;28;20474;-58
2023/12/14 09:10:38;;;;;;;18.23;13.80;;;;;;;4.68;100.00;101754.75;5034760;28;20422;-59
2023/12/14 09:13:04;;;;;;;17.33;13.15;;;;;;;4.68;100.00;101763.53;5030364;28;20025;-59
2023/12/14 09:15:31;;;;;;;16.48;11.75;;;;;;;4.68;100.00;101766.16;5030922;28;20033;-58
2023/12/14 09:17:56;;;;;;;15.13;11.48;;;;;;;4.67;100.00;101768.84;5031874;28;20021;-58
2023/12/14 09:20:21;;;;;;;17.60;12.25;;;;;;;4.68;100.00;101775.81;5031073;28;20033;-60
2023/12/14 09:22:47;;;;;;;14.93;12.60;;;;;;;4.66;100.00;101791.66;5034610;28;20063;-59
2023/12/14 09:25:12;;;;;;;17.02;13.02;;;;;;;4.68;100.00;101788.97;5035346;28;20048;-59
2023/12/14 09:27:37;;;;;;;19.73;12.95;;;;;;;4.68;100.00;101792.47;5032624;28;20040;-58
2023/12/14 09:30:04;;;;;;;15.73;12.05;;;;;;;4.67;100.00;101798.66;5035774;28;20029;-60
2023/12/14 09:32:29;;;;;;;15.27;11.95;;;;;;;4.66;100.00;101799.53;5033310;28;20033;-59
2023/12/14 09:34:56;;;;;;;16.42;11.88;;;;;;;4.70;100.00;101813.47;5030693;28;20637;-59
2023/12/14 09:37:22;;;;;;;16.67;12.20;;;;;;;4.66;100.00;101811.84;5037694;28;20453;-60
2023/12/14 09:39:47;;;;;;;15.23;12.55;;;;;;;4.68;100.00;101817.91;5033829;28;20068;-59
2023/12/14 09:42:17;;;;;;;15.05;11.25;;;;;;;4.64;100.00;101820.66;5036034;28;20482;-58
2023/12/14 09:44:43;;;;;;;14.35;11.43;;;;;;;4.65;100.00;101826.78;5035314;28;20095;-59
2023/12/14 09:47:09;;;;;;;14.60;11.60;;;;;;;4.66;100.00;101831.13;5031421;28;20030;-59
2023/12/14 09:49:35;;;;;;;15.93;11.88;;;;;;;4.67;100.00;101829.38;5039495;28;20051;-60
2023/12/14 09:52:01;;;;;;;15.52;11.45;;;;;;;4.69;100.00;101838.06;5039572;28;20049;-60
2023/12/14 09:54:27;;;;;;;15.25;12.05;;;;;;;4.67;100.00;101838.13;5032541;28;20123;-58
2023/12/14 09:56:52;;;;;;;14.82;11.88;;;;;;;4.67;100.00;101845.16;5038190;28;20112;-60
2023/12/14 09:59:19;;;;;;;15.70;11.95;;;;;;;4.66;100.00;101853.97;5039875;28;20554;-60
2023/12/14 10:01:44;;;;;;;15.80;11.63;;;;;;;4.66;100.00;101856.59;5036121;28;20025;-60
2023/12/14 10:04:14;;;;;;;15.70;12.27;;;;;;;4.64;100.00;101861.91;5034713;28;20063;-58
2023/12/14 10:06:42;;;;;;;14.68;12.15;;;;;;;4.65;100.00;101863.63;5032407;28;20029;-60
2023/12/14 10:09:09;;;;;;;14.93;11.90;;;;;;;4.65;100.00;101871.53;5032502;28;20029;-59
2023/12/14 10:11:36;;;;;;;16.98;12.13;;;;;;;4.66;100.00;101877.63;5029349;28;20037;-59
2023/12/14 10:14:02;;;;;;;15.18;12.77;;;;;;;4.67;100.00;101871.47;5032338;28;20497;-59
2023/12/14 10:16:33;;;;;;;15.98;12.82;;;;;;;4.68;100.00;101878.44;5031654;28;20163;-60
2023/12/14 10:18:59;;;;;;;14.35;11.48;;;;;;;4.67;100.00;101885.47;5029906;28;20429;-59
2023/12/14 10:21:27;;;;;;;17.65;13.48;;;;;;;4.67;100.00;101884.63;5033698;28;20501;-58
2023/12/14 10:23:56;;;;;;;13.68;12.05;;;;;;;4.66;100.00;101877.63;5029895;28;20040;-60
2023/12/14 10:26:25;;;;;;;16.75;12.25;;;;;;;4.68;100.00;101892.47;5034204;28;20064;-59
2023/12/14 10:28:51;;;;;;;18.27;11.88;;;;;;;4.65;100.00;101895.22;5036007;28;20024;-60
2023/12/14 10:31:19;;;;;;;15.35;10.98;;;;;;;4.63;100.00;101895.25;5034780;28;20052;-59
2023/12/14 10:33:45;;;;;;;19.30;13.15;;;;;;;4.64;100.00;101894.34;5033732;28;20155;-59
2023/12/14 10:36:12;;;;;;;15.38;11.93;;;;;;;4.67;100.00;101889.91;5032985;28;20026;-60
2023/12/14 10:38:38;;;;;;;13.70;11.05;;;;;;;4.67;100.00;101892.53;5047014;28;20386;-60
2023/12/14 10:41:05;;;;;;;13.88;11.40;;;;;;;4.67;100.00;101903.91;5034590;28;20032;-59
2023/12/14 10:43:32;;;;;;;15.35;12.32;;;;;;;4.69;100.00;101901.22;5034811;28;20044;-59
2023/12/14 10:45:59;;;;;;;15.65;12.40;;;;;;;4.70;100.00;101900.31;5031608;28;20383;-59
2023/12/14 10:48:25;;;;;;;15.82;11.82;;;;;;;4.71;100.00;101902.88;5039332;28;20235;-59
2023/12/14 10:50:53;;;;;;;16.92;12.88;;;;;;;4.70;100.00;101906.44;5037112;28;20120;-59
2023/12/14 10:53:19;;;;;;;22.30;17.60;;;;;;;4.71;100.00;101910.75;5039831;28;20033;-59
2023/12/14 10:55:45;;;;;;;26.65;19.48;;;;;;;4.70;100.00;101916.97;5031819;28;20025;-60
2023/12/14 10:58:11;;;;;;;19.25;13.38;;;;;;;4.69;100.00;101925.75;5040462;28;20455;-60
2023/12/14 11:00:37;;;;;;;15.57;13.23;;;;;;;4.67;100.00;101924.97;5042669;28;20378;-59
2023/12/14 11:03:04;;;;;;;18.05;14.35;;;;;;;4.69;100.00;101915.22;5035610;28;20078;-59